Time;durP1;ratioP1;P1;durP2;ratioP2;P2;SDS_P1;SDS_P2;PMS_P1;PMS_P2;Temp;Humidity;BMP_temperature;BMP_pressure;BME280_temperature;BME280_humidity;BME280_pressure;Samples;Min_cycle;Max_cycle;Signal;HPM_P1;HPM_P2
2023/03/12 00:01:50;;;;;;;;;;;;;;;;;;5014416;28;19913;-78
2023/03/12 00:04:15;;;;;;;;;;;;;;;;;;4996960;28;20439;-79
2023/03/12 00:06:40;;;;;;;;;;;;;;;;;;4998141;28;20000;-78
2023/03/12 00:09:08;;;;;;;;;;;;;;;;;;5023061;23;20374;-79
2023/03/12 00:11:33;;;;;;;;;;;;;;;;;;4992148;28;19910;-78
2023/03/12 00:13:59;;;;;;;;;;;;;;;;;;4981640;28;19965;-79
2023/03/12 00:16:24;;;;;;;;;;;;;;;;;;4975317;28;19914;-79
2023/03/12 00:18:50;;;;;;;;;;;;;;;;;;4988156;28;19956;-79
2023/03/12 00:21:16;;;;;;;;;;;;;;;;;;5006166;28;20024;-78
2023/03/12 00:23:41;;;;;;;;;;;;;;;;;;5000799;28;19925;-79
2023/03/12 00:26:07;;;;;;;;;;;;;;;;;;4985868;28;19920;-79
2023/03/12 00:28:35;;;;;;;;;;;;;;;;;;4968915;28;19921;-78
2023/03/12 00:31:00;;;;;;;;;;;;;;;;;;5004062;28;19922;-78
2023/03/12 00:33:26;;;;;;;;;;;;;;;;;;4996283;28;19994;-78
2023/03/12 00:35:54;;;;;;;;;;;;;;;;;;4987313;28;19921;-78
2023/03/12 00:38:20;;;;;;;;;;;;;;;;;;4999052;28;19988;-78
2023/03/12 00:40:47;;;;;;;;;;;;;;;;;;5009172;28;20011;-78
2023/03/12 00:43:12;;;;;;;;;;;;;;;;;;5010645;28;19917;-79
2023/03/12 00:45:38;;;;;;;;;;;;;;;;;;4995247;28;19913;-78
2023/03/12 00:48:03;;;;;;;;;;;;;;;;;;5015867;28;20000;-79
2023/03/12 00:50:29;;;;;;;;;;;;;;;;;;4976413;28;20364;-78
2023/03/12 00:52:55;;;;;;;;;;;;;;;;;;4997924;28;19964;-78
2023/03/12 00:55:21;;;;;;;;;;;;;;;;;;4992100;28;19975;-78
2023/03/12 00:57:47;;;;;;;;;;;;;;;;;;4996313;28;20216;-77
2023/03/12 01:00:13;;;;;;;;;;;;;;;;;;5007868;28;20027;-78
2023/03/12 01:02:38;;;;;;;;;;;;;;;;;;4976649;28;19915;-78
2023/03/12 01:05:04;;;;;;;;;;;;;;;;;;4980180;28;20274;-79
2023/03/12 01:07:33;;;;;;;;;;;;;;;;;;4975733;28;19921;-78
2023/03/12 01:09:58;;;;;;;;;;;;;;;;;;4981655;28;19918;-78
2023/03/12 01:12:24;;;;;;;;;;;;;;;;;;4996854;28;19976;-79
2023/03/12 01:14:50;;;;;;;;;;;;;;;;;;4998907;28;19917;-79
2023/03/12 01:17:15;;;;;;;;;;;;;;;;;;4975478;28;19995;-79
2023/03/12 01:19:41;;;;;;;;;;;;;;;;;;4983332;28;19920;-79
2023/03/12 01:22:09;;;;;;;;;;;;;;;;;;5003677;28;20369;-79
2023/03/12 01:24:49;;;;;;;;;;;;;;;;;;;;;
2023/03/12 01:27:39;;;;;;;;;;;;;;;;;;4990615;28;19960;-78
2023/03/12 01:30:05;;;;;;;;;;;;;;;;;;5000782;28;20651;-77
2023/03/12 01:32:31;;;;;;;;;;;;;;;;;;4974659;28;19937;-78
2023/03/12 01:34:59;;;;;;;;;;;;;;;;;;4979392;28;19984;-78
2023/03/12 01:37:26;;;;;;;;;;;;;;;;;;4982108;28;19918;-78
2023/03/12 01:39:51;;;;;;;;;;;;;;;;;;4997180;28;19963;-77
2023/03/12 01:42:20;;;;;;;;;;;;;;;;;;5008288;28;19936;-78
2023/03/12 01:44:45;;;;;;;;;;;;;;;;;;4999742;28;19952;-78
2023/03/12 01:47:11;;;;;;;;;;;;;;;;;;5004794;28;19914;-77
2023/03/12 01:49:37;;;;;;;;;;;;;;;;;;5027119;28;19914;-77
2023/03/12 01:52:02;;;;;;;;;;;;;;;;;;4985469;28;20389;-79
2023/03/12 01:54:33;;;;;;;;;;;;;;;;;;5008636;28;19910;-79
2023/03/12 01:56:58;;;;;;;;;;;;;;;;;;5009371;28;19948;-78
2023/03/12 01:59:24;;;;;;;;;;;;;;;;;;5009790;28;19914;-78
2023/03/12 02:01:50;;;;;;;;;;;;;;;;;;5007283;28;19920;-77
2023/03/12 02:04:16;;;;;;;;;;;;;;;;;;4987772;28;19922;-78
2023/03/12 02:06:42;;;;;;;;;;;;;;;;;;5010857;28;19921;-77
2023/03/12 02:09:08;;;;;;;;;;;;;;;;;;4984836;28;19913;-78
2023/03/12 02:11:33;;;;;;;;;;;;;;;;;;5025488;28;20308;-78
2023/03/12 02:13:59;;;;;;;;;;;;;;;;;;5004313;28;19910;-78
2023/03/12 02:16:24;;;;;;;;;;;;;;;;;;4986219;28;19914;-78
2023/03/12 02:18:50;;;;;;;;;;;;;;;;;;4992023;28;20012;-78
2023/03/12 02:21:16;;;;;;;;;;;;;;;;;;4999592;28;19918;-77
2023/03/12 02:23:42;;;;;;;;;;;;;;;;;;4987950;28;19924;-78
2023/03/12 02:26:07;;;;;;;;;;;;;;;;;;5025298;28;19984;-78
2023/03/12 02:28:41;;;;;;;;;;;;;;;;;;4995048;28;19914;-77
2023/03/12 02:31:07;;;;;;;;;;;;;;;;;;5020036;28;19913;-78
2023/03/12 02:33:33;;;;;;;;;;;;;;;;;;4998254;28;19964;-78
2023/03/12 02:35:59;;;;;;;;;;;;;;;;;;5003420;28;19913;-78
2023/03/12 02:38:25;;;;;;;;;;;;;;;;;;5002621;28;19920;-78
2023/03/12 02:40:51;;;;;;;;;;;;;;;;;;5024066;28;19914;-78
2023/03/12 02:43:16;;;;;;;;;;;;;;;;;;5022552;28;19917;-77
2023/03/12 02:45:42;;;;;;;;;;;;;;;;;;5001629;28;19964;-78
2023/03/12 02:48:08;;;;;;;;;;;;;;;;;;5014808;28;19913;-78
2023/03/12 02:50:34;;;;;;;;;;;;;;;;;;5017979;28;19914;-79
2023/03/12 02:52:59;;;;;;;;;;;;;;;;;;4998593;28;19914;-78
2023/03/12 02:55:25;;;;;;;;;;;;;;;;;;5019935;28;20418;-76
2023/03/12 02:57:50;;;;;;;;;;;;;;;;;;5021156;28;19991;-78
2023/03/12 03:00:16;;;;;;;;;;;;;;;;;;5008069;28;19924;-77
2023/03/12 03:02:46;;;;;;;;;;;;;;;;;;5008434;28;19917;-77
2023/03/12 03:05:12;;;;;;;;;;;;;;;;;;4977326;28;19980;-78
2023/03/12 03:07:38;;;;;;;;;;;;;;;;;;5020097;28;19941;-79
2023/03/12 03:10:03;;;;;;;;;;;;;;;;;;4994296;28;19918;-77
2023/03/12 03:12:29;;;;;;;;;;;;;;;;;;5019458;28;19921;-78
2023/03/12 03:14:54;;;;;;;;;;;;;;;;;;5018680;28;19917;-79
2023/03/12 03:17:22;;;;;;;;;;;;;;;;;;4999238;28;19957;-78
2023/03/12 03:19:47;;;;;;;;;;;;;;;;;;4994715;28;19920;-78
2023/03/12 03:22:13;;;;;;;;;;;;;;;;;;4996692;28;19948;-77
2023/03/12 03:24:39;;;;;;;;;;;;;;;;;;5001997;28;19921;-78
2023/03/12 03:27:04;;;;;;;;;;;;;;;;;;4982010;28;19925;-78
2023/03/12 03:29:29;;;;;;;;;;;;;;;;;;4989300;28;19940;-77
2023/03/12 03:31:55;;;;;;;;;;;;;;;;;;5017531;28;20341;-79
2023/03/12 03:34:21;;;;;;;;;;;;;;;;;;5002240;28;19913;-78
2023/03/12 03:36:46;;;;;;;;;;;;;;;;;;5007956;28;19924;-77
2023/03/12 03:39:14;;;;;;;;;;;;;;;;;;5010340;28;19913;-78
2023/03/12 03:41:40;;;;;;;;;;;;;;;;;;5017393;28;19960;-76
2023/03/12 03:44:06;;;;;;;;;;;;;;;;;;5010063;28;19918;-77
2023/03/12 03:46:36;;;;;;;;;;;;;;;;;;4998084;28;20012;-78
2023/03/12 03:49:05;;;;;;;;;;;;;;;;;;5017088;28;19921;-77
2023/03/12 03:51:32;;;;;;;;;;;;;;;;;;4992274;28;20017;-78
2023/03/12 03:54:03;;;;;;;;;;;;;;;;;;4979975;28;19917;-78
2023/03/12 03:56:28;;;;;;;;;;;;;;;;;;5016213;28;19976;-78
2023/03/12 03:58:56;;;;;;;;;;;;;;;;;;4974183;28;19964;-77
2023/03/12 04:01:22;;;;;;;;;;;;;;;;;;5011648;28;19913;-78
2023/03/12 04:03:48;;;;;;;;;;;;;;;;;;5003818;28;19928;-78
2023/03/12 04:06:14;;;;;;;;;;;;;;;;;;4990364;28;19913;-78
2023/03/12 04:08:40;;;;;;;;;;;;;;;;;;4996500;28;19968;-78
2023/03/12 04:11:09;;;;;;;;;;;;;;;;;;4975139;28;19918;-79
2023/03/12 04:13:35;;;;;;;;;;;;;;;;;;4992304;28;19913;-78
2023/03/12 04:16:01;;;;;;;;;;;;;;;;;;5007260;28;19960;-78
2023/03/12 04:18:26;;;;;;;;;;;;;;;;;;4997691;28;19914;-78
2023/03/12 04:20:52;;;;;;;;;;;;;;;;;;4983979;28;19914;-77
2023/03/12 04:23:18;;;;;;;;;;;;;;;;;;4982446;28;19952;-78
2023/03/12 04:25:44;;;;;;;;;;;;;;;;;;4994889;28;19935;-77
2023/03/12 04:28:09;;;;;;;;;;;;;;;;;;4992666;28;19913;-77
2023/03/12 04:30:37;;;;;;;;;;;;;;;;;;4979343;28;19918;-77
2023/03/12 04:33:03;;;;;;;;;;;;;;;;;;5012996;28;19964;-78
2023/03/12 04:35:29;;;;;;;;;;;;;;;;;;4997409;28;20142;-78
2023/03/12 04:37:55;;;;;;;;;;;;;;;;;;5013801;28;19913;-78
2023/03/12 04:40:20;;;;;;;;;;;;;;;;;;5022415;28;19913;-77
2023/03/12 04:42:46;;;;;;;;;;;;;;;;;;5013050;28;19917;-77
2023/03/12 04:45:12;;;;;;;;;;;;;;;;;;5021434;28;19924;-77
2023/03/12 04:47:41;;;;;;;;;;;;;;;;;;4990112;28;19913;-77
2023/03/12 04:50:08;;;;;;;;;;;;;;;;;;5003058;28;19924;-78
2023/03/12 04:52:33;;;;;;;;;;;;;;;;;;4999756;28;19933;-77
2023/03/12 04:54:59;;;;;;;;;;;;;;;;;;4989901;28;19914;-78
2023/03/12 04:57:24;;;;;;;;;;;;;;;;;;4989582;28;20269;-77
2023/03/12 04:59:50;;;;;;;;;;;;;;;;;;5005338;28;19944;-77
2023/03/12 05:02:16;;;;;;;;;;;;;;;;;;5002571;28;19972;-78
2023/03/12 05:04:41;;;;;;;;;;;;;;;;;;5001983;28;19917;-77
2023/03/12 05:07:07;;;;;;;;;;;;;;;;;;5015364;28;19913;-78
2023/03/12 05:09:33;;;;;;;;;;;;;;;;;;4991625;28;19924;-78
2023/03/12 05:11:58;;;;;;;;;;;;;;;;;;5010232;28;20013;-79
2023/03/12 05:14:24;;;;;;;;;;;;;;;;;;4978014;28;20271;-78
2023/03/12 05:16:49;;;;;;;;;;;;;;;;;;4992877;28;19913;-78
2023/03/12 05:19:15;;;;;;;;;;;;;;;;;;5006400;28;19914;-77
2023/03/12 05:21:41;;;;;;;;;;;;;;;;;;4998247;28;19976;-78
2023/03/12 05:24:06;;;;;;;;;;;;;;;;;;5002995;28;19917;-77
2023/03/12 05:26:32;;;;;;;;;;;;;;;;;;5001529;28;19921;-78
2023/03/12 05:29:10;;;;;;;;;;;;;;;;;;4985203;28;19913;-77
2023/03/12 05:31:36;;;;;;;;;;;;;;;;;;4986729;28;19935;-78
2023/03/12 05:34:03;;;;;;;;;;;;;;;;;;5005549;28;19909;-78
2023/03/12 05:36:30;;;;;;;;;;;;;;;;;;4984962;28;19913;-78
2023/03/12 05:38:56;;;;;;;;;;;;;;;;;;4967515;28;20032;-78
2023/03/12 05:41:22;;;;;;;;;;;;;;;;;;4985590;28;19917;-78
2023/03/12 05:43:49;;;;;;;;;;;;;;;;;;5001488;28;19924;-78
2023/03/12 05:46:16;;;;;;;;;;;;;;;;;;4987072;28;19944;-78
2023/03/12 05:48:41;;;;;;;;;;;;;;;;;;4970957;28;19914;-77
2023/03/12 05:51:07;;;;;;;;;;;;;;;;;;5004411;28;20444;-77
2023/03/12 05:53:33;;;;;;;;;;;;;;;;;;5001294;28;20333;-78
2023/03/12 05:55:59;;;;;;;;;;;;;;;;;;5000535;28;19913;-77
2023/03/12 05:58:24;;;;;;;;;;;;;;;;;;4967886;28;19949;-77
2023/03/12 06:00:50;;;;;;;;;;;;;;;;;;4983093;28;19914;-77
2023/03/12 06:03:18;;;;;;;;;;;;;;;;;;4984859;28;19951;-78
2023/03/12 06:05:45;;;;;;;;;;;;;;;;;;4970137;28;19913;-78
2023/03/12 06:08:10;;;;;;;;;;;;;;;;;;4985960;28;19918;-78
2023/03/12 06:10:36;;;;;;;;;;;;;;;;;;4956168;23;19926;-78
2023/03/12 06:13:02;;;;;;;;;;;;;;;;;;4947891;28;19914;-79
2023/03/12 06:15:27;;;;;;;;;;;;;;;;;;4963367;28;19921;-78
2023/03/12 06:17:52;;;;;;;;;;;;;;;;;;4963785;28;20397;-79
2023/03/12 06:20:18;;;;;;;;;;;;;;;;;;4980536;28;19961;-79
2023/03/12 06:22:43;;;;;;;;;;;;;;;;;;4982935;28;19914;-79
2023/03/12 06:25:09;;;;;;;;;;;;;;;;;;4948991;28;20017;-78
2023/03/12 06:27:34;;;;;;;;;;;;;;;;;;4965011;28;19945;-79
2023/03/12 06:29:59;;;;;;;;;;;;;;;;;;4983789;28;20369;-79
2023/03/12 06:32:25;;;;;;;;;;;;;;;;;;4981613;28;19914;-79
2023/03/12 06:34:50;;;;;;;;;;;;;;;;;;4980433;28;19914;-80
2023/03/12 06:37:15;;;;;;;;;;;;;;;;;;4963329;28;19920;-79
2023/03/12 06:39:41;;;;;;;;;;;;;;;;;;4980457;28;20358;-80
2023/03/12 06:42:06;;;;;;;;;;;;;;;;;;4981186;28;19914;-78
2023/03/12 06:44:32;;;;;;;;;;;;;;;;;;4981473;28;20290;-80
2023/03/12 06:46:57;;;;;;;;;;;;;;;;;;4965422;28;19914;-79
2023/03/12 06:49:22;;;;;;;;;;;;;;;;;;4983561;28;19914;-78
2023/03/12 06:51:48;;;;;;;;;;;;;;;;;;4966395;28;20341;-81
2023/03/12 06:54:13;;;;;;;;;;;;;;;;;;4983585;28;19918;-79
2023/03/12 06:56:38;;;;;;;;;;;;;;;;;;4949420;28;20016;-79
2023/03/12 06:59:04;;;;;;;;;;;;;;;;;;4983018;28;19914;-79
2023/03/12 07:01:29;;;;;;;;;;;;;;;;;;4964731;28;19925;-79
2023/03/12 07:03:55;;;;;;;;;;;;;;;;;;4966170;28;19918;-78
2023/03/12 07:06:20;;;;;;;;;;;;;;;;;;4984557;28;19914;-79
2023/03/12 07:08:45;;;;;;;;;;;;;;;;;;4966709;28;20005;-79
2023/03/12 07:11:11;;;;;;;;;;;;;;;;;;4964929;28;20404;-79
2023/03/12 07:13:36;;;;;;;;;;;;;;;;;;4982362;28;19914;-80
2023/03/12 07:16:02;;;;;;;;;;;;;;;;;;4981867;28;19937;-80
2023/03/12 07:18:27;;;;;;;;;;;;;;;;;;4948770;28;19953;-79
2023/03/12 07:20:53;;;;;;;;;;;;;;;;;;4981385;28;19920;-79
2023/03/12 07:23:18;;;;;;;;;;;;;;;;;;4982012;28;19925;-79
2023/03/12 07:25:43;;;;;;;;;;;;;;;;;;4982368;28;19921;-80
2023/03/12 07:28:09;;;;;;;;;;;;;;;;;;4981936;28;20285;-80
2023/03/12 07:30:34;;;;;;;;;;;;;;;;;;4981165;28;19953;-79
2023/03/12 07:32:59;;;;;;;;;;;;;;;;;;4962462;28;20378;-79
2023/03/12 07:35:25;;;;;;;;;;;;;;;;;;4960805;28;19921;-79
2023/03/12 07:37:50;;;;;;;;;;;;;;;;;;4977849;28;19914;-80
2023/03/12 07:40:16;;;;;;;;;;;;;;;;;;4977534;28;20290;-80
2023/03/12 07:42:41;;;;;;;;;;;;;;;;;;4959908;28;20040;-79
2023/03/12 07:45:06;;;;;;;;;;;;;;;;;;4976865;28;20301;-80
2023/03/12 07:47:32;;;;;;;;;;;;;;;;;;4978386;28;19921;-79
2023/03/12 07:49:57;;;;;;;;;;;;;;;;;;4975770;28;19914;-78
2023/03/12 07:52:23;;;;;;;;;;;;;;;;;;4958156;28;19914;-79
2023/03/12 07:54:51;;;;;;;;;;;;;;;;;;4975929;28;19914;-78
2023/03/12 07:57:17;;;;;;;;;;;;;;;;;;4977102;28;19918;-79
2023/03/12 07:59:42;;;;;;;;;;;;;;;;;;4976016;28;19914;-79
2023/03/12 08:02:08;;;;;;;;;;;;;;;;;;4959770;28;19981;-79
2023/03/12 08:04:33;;;;;;;;;;;;;;;;;;4958729;28;20327;-80
2023/03/12 08:06:59;;;;;;;;;;;;;;;;;;4976624;28;19925;-79
2023/03/12 08:09:24;;;;;;;;;;;;;;;;;;4977626;28;20449;-79
2023/03/12 08:11:49;;;;;;;;;;;;;;;;;;4960277;28;19924;-79
2023/03/12 08:14:15;;;;;;;;;;;;;;;;;;4978276;28;19918;-79
2023/03/12 08:16:40;;;;;;;;;;;;;;;;;;4978167;28;19914;-79
2023/03/12 08:19:05;;;;;;;;;;;;;;;;;;4978847;28;19969;-79
2023/03/12 08:21:31;;;;;;;;;;;;;;;;;;4960206;28;19914;-79
2023/03/12 08:23:56;;;;;;;;;;;;;;;;;;4976938;28;19918;-79
2023/03/12 08:26:22;;;;;;;;;;;;;;;;;;4976978;28;20409;-79
2023/03/12 08:28:47;;;;;;;;;;;;;;;;;;4960490;28;19921;-80
2023/03/12 08:31:13;;;;;;;;;;;;;;;;;;4980196;28;20068;-79
2023/03/12 08:33:42;;;;;;;;;;;;;;;;;;4984828;28;19914;-80
2023/03/12 08:36:07;;;;;;;;;;;;;;;;;;4988910;28;19922;-80
2023/03/12 08:38:32;;;;;;;;;;;;;;;;;;4996406;28;19933;-79
2023/03/12 08:40:58;;;;;;;;;;;;;;;;;;4997070;28;19922;-78
2023/03/12 08:43:23;;;;;;;;;;;;;;;;;;4997950;28;20413;-80
2023/03/12 08:45:48;;;;;;;;;;;;;;;;;;4999016;28;19918;-80
2023/03/12 08:48:14;;;;;;;;;;;;;;;;;;4997504;28;19962;-79
2023/03/12 08:50:39;;;;;;;;;;;;;;;;;;4999250;28;19981;-80
2023/03/12 08:53:05;;;;;;;;;;;;;;;;;;4998812;28;19925;-79
2023/03/12 08:55:30;;;;;;;;;;;;;;;;;;4974462;28;19918;-79
2023/03/12 08:57:55;;;;;;;;;;;;;;;;;;4948365;28;19918;-79
2023/03/12 09:00:21;;;;;;;;;;;;;;;;;;4981065;28;19914;-79
2023/03/12 09:02:46;;;;;;;;;;;;;;;;;;4962729;28;19922;-80
2023/03/12 09:05:12;;;;;;;;;;;;;;;;;;4958826;28;20440;-79
2023/03/12 09:07:37;;;;;;;;;;;;;;;;;;4959675;28;19915;-80
2023/03/12 09:10:02;;;;;;;;;;;;;;;;;;4976139;28;19940;-79
2023/03/12 09:12:28;;;;;;;;;;;;;;;;;;4958628;28;19918;-79
2023/03/12 09:14:53;;;;;;;;;;;;;;;;;;4958135;28;20009;-79
2023/03/12 09:17:19;;;;;;;;;;;;;;;;;;4976210;28;19918;-80
2023/03/12 09:19:44;;;;;;;;;;;;;;;;;;4944956;28;19914;-81
2023/03/12 09:22:10;;;;;;;;;;;;;;;;;;4978917;28;20308;-80
2023/03/12 09:24:35;;;;;;;;;;;;;;;;;;4960706;28;20371;-80
2023/03/12 09:27:01;;;;;;;;;;;;;;;;;;4960861;28;19920;-79
2023/03/12 09:29:26;;;;;;;;;;;;;;;;;;4979010;28;19961;-79
2023/03/12 09:31:52;;;;;;;;;;;;;;;;;;4978169;28;19922;-80
2023/03/12 09:34:17;;;;;;;;;;;;;;;;;;4976886;28;20312;-80
2023/03/12 09:36:43;;;;;;;;;;;;;;;;;;4976220;28;19914;-79
2023/03/12 09:39:08;;;;;;;;;;;;;;;;;;4977346;28;20017;-80
2023/03/12 09:41:33;;;;;;;;;;;;;;;;;;4977089;28;19914;-78
2023/03/12 09:43:59;;;;;;;;;;;;;;;;;;4943527;28;19925;-80
2023/03/12 09:46:24;;;;;;;;;;;;;;;;;;4960454;28;20016;-79
2023/03/12 09:48:50;;;;;;;;;;;;;;;;;;4943622;28;19921;-80
2023/03/12 09:51:15;;;;;;;;;;;;;;;;;;4958537;28;19953;-79
2023/03/12 09:53:41;;;;;;;;;;;;;;;;;;4960300;28;19952;-81
2023/03/12 09:56:08;;;;;;;;;;;;;;;;;;4944640;28;20337;-82
2023/03/12 09:58:34;;;;;;;;;;;;;;;;;;4960359;28;19921;-80
2023/03/12 10:00:59;;;;;;;;;;;;;;;;;;4979095;28;19918;-79
2023/03/12 10:03:25;;;;;;;;;;;;;;;;;;4979765;28;19925;-80
2023/03/12 10:05:50;;;;;;;;;;;;;;;;;;4979733;28;20275;-81
2023/03/12 10:08:16;;;;;;;;;;;;;;;;;;4961924;28;19964;-80
2023/03/12 10:10:42;;;;;;;;;;;;;;;;;;4945596;28;19962;-79
2023/03/12 10:13:07;;;;;;;;;;;;;;;;;;4962058;28;19920;-80
2023/03/12 10:15:33;;;;;;;;;;;;;;;;;;4980091;28;19914;-80
2023/03/12 10:17:58;;;;;;;;;;;;;;;;;;4980713;28;19953;-80
2023/03/12 10:20:24;;;;;;;;;;;;;;;;;;4947787;28;19917;-82
2023/03/12 10:22:49;;;;;;;;;;;;;;;;;;4952505;28;19918;-81
2023/03/12 10:25:15;;;;;;;;;;;;;;;;;;4954658;28;19972;-80
2023/03/12 10:27:40;;;;;;;;;;;;;;;;;;4969897;28;19918;-81
2023/03/12 10:30:06;;;;;;;;;;;;;;;;;;4967040;28;19914;-79
2023/03/12 10:32:31;;;;;;;;;;;;;;;;;;4966564;28;19930;-81
2023/03/12 10:34:57;;;;;;;;;;;;;;;;;;4965366;28;19969;-80
2023/03/12 10:37:22;;;;;;;;;;;;;;;;;;4950625;28;19915;-81
2023/03/12 10:39:47;;;;;;;;;;;;;;;;;;4950982;28;19914;-80
2023/03/12 10:42:13;;;;;;;;;;;;;;;;;;4948456;28;19926;-80
2023/03/12 10:44:38;;;;;;;;;;;;;;;;;;4982337;28;20434;-80
2023/03/12 10:47:04;;;;;;;;;;;;;;;;;;4964314;28;19914;-80
2023/03/12 10:49:29;;;;;;;;;;;;;;;;;;4963815;28;20570;-80
2023/03/12 10:51:55;;;;;;;;;;;;;;;;;;4979923;28;20400;-79
2023/03/12 10:54:20;;;;;;;;;;;;;;;;;;4962691;28;19914;-80
2023/03/12 10:56:46;;;;;;;;;;;;;;;;;;4980533;28;19922;-80
2023/03/12 10:59:11;;;;;;;;;;;;;;;;;;4947704;28;19920;-80
2023/03/12 11:01:37;;;;;;;;;;;;;;;;;;4981136;28;20290;-80
2023/03/12 11:04:02;;;;;;;;;;;;;;;;;;4948763;28;19989;-80
2023/03/12 11:06:27;;;;;;;;;;;;;;;;;;4963822;28;19914;-80
2023/03/12 11:08:53;;;;;;;;;;;;;;;;;;4981478;28;19914;-80
2023/03/12 11:11:18;;;;;;;;;;;;;;;;;;4946343;28;19977;-79
2023/03/12 11:13:43;;;;;;;;;;;;;;;;;;4979940;28;19957;-79
2023/03/12 11:16:09;;;;;;;;;;;;;;;;;;4980122;28;19918;-80
2023/03/12 11:18:34;;;;;;;;;;;;;;;;;;4963966;28;19914;-80
2023/03/12 11:21:01;;;;;;;;;;;;;;;;;;4963862;28;19960;-79
2023/03/12 11:23:27;;;;;;;;;;;;;;;;;;4947412;28;20028;-79
2023/03/12 11:25:52;;;;;;;;;;;;;;;;;;4963300;28;19921;-79
2023/03/12 11:28:18;;;;;;;;;;;;;;;;;;4950312;28;19910;-79
2023/03/12 11:30:43;;;;;;;;;;;;;;;;;;4965803;28;19914;-80
2023/03/12 11:33:08;;;;;;;;;;;;;;;;;;4948628;28;19914;-79
2023/03/12 11:35:34;;;;;;;;;;;;;;;;;;4980619;28;19914;-81
2023/03/12 11:37:59;;;;;;;;;;;;;;;;;;4971093;28;19918;-80
2023/03/12 11:40:24;;;;;;;;;;;;;;;;;;4942961;29;19914;-80
2023/03/12 11:42:50;;;;;;;;;;;;;;;;;;4960612;29;19914;-80
2023/03/12 11:45:15;;;;;;;;;;;;;;;;;;4959586;29;19919;-81
2023/03/12 11:47:41;;;;;;;;;;;;;;;;;;4942817;29;20001;-80
2023/03/12 11:50:06;;;;;;;;;;;;;;;;;;4925768;29;19914;-80
2023/03/12 11:52:31;;;;;;;;;;;;;;;;;;4942476;29;19925;-80
2023/03/12 11:54:57;;;;;;;;;;;;;;;;;;4959123;29;20263;-80
2023/03/12 11:57:22;;;;;;;;;;;;;;;;;;4926367;29;19915;-81
2023/03/12 11:59:48;;;;;;;;;;;;;;;;;;4943437;29;20438;-80
2023/03/12 12:02:13;;;;;;;;;;;;;;;;;;4943463;29;19922;-79
2023/03/12 12:04:39;;;;;;;;;;;;;;;;;;4941149;29;20293;-79
2023/03/12 12:07:04;;;;;;;;;;;;;;;;;;4944340;29;19922;-80
2023/03/12 12:12:05;;;;;;;;;;;;;;;;;;4943912;29;20262;-77
2023/03/12 12:14:30;;;;;;;;;;;;;;;;;;4947677;29;20448;-77
2023/03/12 12:16:56;;;;;;;;;;;;;;;;;;4965192;29;19915;-77
2023/03/12 12:19:21;;;;;;;;;;;;;;;;;;4966724;29;19950;-78
2023/03/12 12:21:46;;;;;;;;;;;;;;;;;;4972582;28;19925;-78
2023/03/12 12:24:12;;;;;;;;;;;;;;;;;;4972787;29;19918;-78
2023/03/12 12:26:37;;;;;;;;;;;;;;;;;;4971369;29;19918;-77
2023/03/12 12:29:03;;;;;;;;;;;;;;;;;;4972315;29;20449;-78
2023/03/12 12:31:29;;;;;;;;;;;;;;;;;;4957841;29;19986;-78
2023/03/12 12:33:54;;;;;;;;;;;;;;;;;;4965581;29;19941;-77
2023/03/12 12:36:19;;;;;;;;;;;;;;;;;;4947739;29;19937;-78
2023/03/12 12:38:45;;;;;;;;;;;;;;;;;;4945262;29;19922;-78
2023/03/12 12:41:11;;;;;;;;;;;;;;;;;;4926953;29;20277;-78
2023/03/12 12:43:36;;;;;;;;;;;;;;;;;;4940528;29;19918;-78
2023/03/12 12:46:01;;;;;;;;;;;;;;;;;;4955998;29;19918;-77
2023/03/12 12:48:27;;;;;;;;;;;;;;;;;;4955966;29;19914;-78
2023/03/12 12:50:52;;;;;;;;;;;;;;;;;;4955027;28;19970;-78
2023/03/12 12:53:19;;;;;;;;;;;;;;;;;;4955201;29;20305;-78
2023/03/12 12:55:44;;;;;;;;;;;;;;;;;;4938008;29;20437;-77
2023/03/12 12:58:10;;;;;;;;;;;;;;;;;;4922371;29;19915;-77
2023/03/12 13:00:35;;;;;;;;;;;;;;;;;;4955017;28;20326;-77
2023/03/12 13:03:01;;;;;;;;;;;;;;;;;;4922676;29;19973;-77
2023/03/12 13:05:26;;;;;;;;;;;;;;;;;;4922329;29;19915;-79
2023/03/12 13:07:52;;;;;;;;;;;;;;;;;;4955176;29;19921;-78
2023/03/12 13:10:17;;;;;;;;;;;;;;;;;;4937611;29;19914;-77
2023/03/12 13:12:43;;;;;;;;;;;;;;;;;;4937983;29;19921;-78
2023/03/12 13:15:08;;;;;;;;;;;;;;;;;;4954552;29;20469;-78
2023/03/12 13:17:33;;;;;;;;;;;;;;;;;;4954589;29;19922;-78
2023/03/12 13:19:59;;;;;;;;;;;;;;;;;;4937861;29;20259;-78
2023/03/12 13:22:25;;;;;;;;;;;;;;;;;;4921722;29;20433;-78
2023/03/12 13:24:50;;;;;;;;;;;;;;;;;;4905900;29;19927;-77
2023/03/12 13:27:16;;;;;;;;;;;;;;;;;;4954601;29;19915;-78
2023/03/12 13:29:42;;;;;;;;;;;;;;;;;;4921412;28;19929;-78
2023/03/12 13:32:07;;;;;;;;;;;;;;;;;;4937483;29;20005;-78
2023/03/12 13:34:33;;;;;;;;;;;;;;;;;;4940248;29;20429;-77
2023/03/12 13:36:58;;;;;;;;;;;;;;;;;;4940503;29;19938;-78
2023/03/12 13:39:24;;;;;;;;;;;;;;;;;;4941397;29;19970;-77
2023/03/12 13:41:49;;;;;;;;;;;;;;;;;;4924785;29;20374;-77
2023/03/12 13:44:14;;;;;;;;;;;;;;;;;;4940569;29;20310;-78
2023/03/12 13:46:40;;;;;;;;;;;;;;;;;;4957667;29;20410;-79
2023/03/12 13:49:05;;;;;;;;;;;;;;;;;;4924790;29;19914;-78
2023/03/12 13:51:30;;;;;;;;;;;;;;;;;;4958012;28;19954;-77
2023/03/12 13:53:56;;;;;;;;;;;;;;;;;;4940510;29;20481;-78
2023/03/12 13:56:21;;;;;;;;;;;;;;;;;;4957695;29;19915;-77
2023/03/12 13:58:47;;;;;;;;;;;;;;;;;;4940552;29;20295;-78
2023/03/12 14:01:13;;;;;;;;;;;;;;;;;;4940665;29;19921;-78
2023/03/12 14:03:38;;;;;;;;;;;;;;;;;;4940173;29;19926;-78
2023/03/12 14:06:03;;;;;;;;;;;;;;;;;;4957317;29;19918;-78
2023/03/12 14:08:29;;;;;;;;;;;;;;;;;;4924217;29;20389;-77
2023/03/12 14:10:54;;;;;;;;;;;;;;;;;;4957249;28;19922;-77
2023/03/12 14:13:20;;;;;;;;;;;;;;;;;;4957608;29;19997;-78
2023/03/12 14:15:45;;;;;;;;;;;;;;;;;;4957195;29;19915;-78
2023/03/12 14:18:11;;;;;;;;;;;;;;;;;;4924593;29;19915;-78
2023/03/12 14:20:36;;;;;;;;;;;;;;;;;;4940064;29;19969;-78
2023/03/12 14:23:02;;;;;;;;;;;;;;;;;;4957143;29;20394;-78
2023/03/12 14:25:27;;;;;;;;;;;;;;;;;;4939869;29;20028;-78
2023/03/12 14:27:53;;;;;;;;;;;;;;;;;;4957205;29;19937;-78
2023/03/12 14:30:18;;;;;;;;;;;;;;;;;;4957203;28;19978;-78
2023/03/12 14:32:43;;;;;;;;;;;;;;;;;;4924463;29;20302;-77
2023/03/12 14:35:09;;;;;;;;;;;;;;;;;;4957249;29;19918;-78
2023/03/12 14:37:34;;;;;;;;;;;;;;;;;;4940139;29;19914;-77
2023/03/12 14:40:00;;;;;;;;;;;;;;;;;;4939865;29;19914;-78
2023/03/12 14:42:25;;;;;;;;;;;;;;;;;;4939640;29;19918;-78
2023/03/12 14:44:50;;;;;;;;;;;;;;;;;;4955744;28;20018;-78
2023/03/12 14:47:16;;;;;;;;;;;;;;;;;;4940020;29;19914;-77
2023/03/12 14:49:42;;;;;;;;;;;;;;;;;;4957179;29;20370;-77
2023/03/12 14:52:07;;;;;;;;;;;;;;;;;;4939972;29;19914;-78
2023/03/12 14:54:33;;;;;;;;;;;;;;;;;;4939880;29;19914;-78
2023/03/12 14:56:58;;;;;;;;;;;;;;;;;;4939965;29;19925;-78
2023/03/12 14:59:23;;;;;;;;;;;;;;;;;;4939955;29;19957;-77
2023/03/12 15:01:49;;;;;;;;;;;;;;;;;;4956677;29;20286;-78
2023/03/12 15:04:15;;;;;;;;;;;;;;;;;;4956578;29;19995;-78
2023/03/12 15:06:40;;;;;;;;;;;;;;;;;;4939381;29;20282;-78
2023/03/12 15:09:05;;;;;;;;;;;;;;;;;;4924038;29;19918;-78
2023/03/12 15:11:31;;;;;;;;;;;;;;;;;;4939295;29;20441;-78
2023/03/12 15:13:56;;;;;;;;;;;;;;;;;;4923791;29;20397;-78
2023/03/12 15:16:22;;;;;;;;;;;;;;;;;;4956904;29;19914;-78
2023/03/12 15:18:48;;;;;;;;;;;;;;;;;;4924214;29;19958;-79
2023/03/12 15:21:14;;;;;;;;;;;;;;;;;;4940262;29;19965;-78
2023/03/12 15:23:39;;;;;;;;;;;;;;;;;;4956945;29;19918;-78
2023/03/12 15:26:05;;;;;;;;;;;;;;;;;;4924722;29;19922;-78
2023/03/12 15:28:30;;;;;;;;;;;;;;;;;;4959452;29;19922;-78
2023/03/12 15:30:56;;;;;;;;;;;;;;;;;;4960570;29;19915;-79
2023/03/12 15:33:23;;;;;;;;;;;;;;;;;;4960580;29;19914;-79
2023/03/12 15:35:48;;;;;;;;;;;;;;;;;;4962258;29;19926;-78
2023/03/12 15:38:14;;;;;;;;;;;;;;;;;;4942641;29;19914;-78
2023/03/12 15:40:39;;;;;;;;;;;;;;;;;;4959581;28;20389;-78
2023/03/12 15:43:06;;;;;;;;;;;;;;;;;;4959771;29;20330;-78
2023/03/12 15:45:31;;;;;;;;;;;;;;;;;;4958324;29;19981;-78
2023/03/12 15:47:57;;;;;;;;;;;;;;;;;;4959793;29;19915;-79
2023/03/12 15:50:22;;;;;;;;;;;;;;;;;;4959253;28;19914;-78
2023/03/12 15:52:48;;;;;;;;;;;;;;;;;;4962376;29;19915;-78
2023/03/12 15:55:13;;;;;;;;;;;;;;;;;;4966901;29;20341;-78
2023/03/12 15:57:38;;;;;;;;;;;;;;;;;;4968597;28;19914;-78
2023/03/12 16:00:04;;;;;;;;;;;;;;;;;;4966171;28;19914;-77
2023/03/12 16:02:30;;;;;;;;;;;;;;;;;;4967212;29;19934;-79
2023/03/12 16:04:56;;;;;;;;;;;;;;;;;;4969896;29;20089;-78
2023/03/12 16:07:21;;;;;;;;;;;;;;;;;;4977898;29;19915;-78
2023/03/12 16:09:46;;;;;;;;;;;;;;;;;;4977316;28;19915;-77
2023/03/12 16:12:12;;;;;;;;;;;;;;;;;;4957154;29;19938;-77
2023/03/12 16:14:38;;;;;;;;;;;;;;;;;;4977633;29;19978;-77
2023/03/12 16:17:04;;;;;;;;;;;;;;;;;;4956674;29;19953;-77
2023/03/12 16:19:29;;;;;;;;;;;;;;;;;;4950613;28;19919;-77
2023/03/12 16:21:55;;;;;;;;;;;;;;;;;;4943287;29;19914;-77
2023/03/12 16:24:20;;;;;;;;;;;;;;;;;;4932169;29;19918;-77
2023/03/12 16:26:47;;;;;;;;;;;;;;;;;;4939100;29;20478;-78
2023/03/12 16:29:13;;;;;;;;;;;;;;;;;;4935581;29;19915;-77
2023/03/12 16:31:38;;;;;;;;;;;;;;;;;;4953243;29;19970;-77
2023/03/12 16:34:04;;;;;;;;;;;;;;;;;;4922849;29;19914;-76
2023/03/12 16:36:29;;;;;;;;;;;;;;;;;;4955422;29;19958;-77
2023/03/12 16:38:55;;;;;;;;;;;;;;;;;;4948110;29;19914;-77